Time;durP1;ratioP1;P1;durP2;ratioP2;P2;SDS_P1;SDS_P2;PMS_P1;PMS_P2;Temp;Humidity;BMP_temperature;BMP_pressure;BME280_temperature;BME280_humidity;BME280_pressure;Samples;Min_cycle;Max_cycle;Signal;HPM_P1;HPM_P2
2023/09/25 00:01:10;;;;;;;3.42;1.10;;;13.00;93.80;;;;;;4969917;28;20042;-79
2023/09/25 00:03:36;;;;;;;2.85;1.00;;;13.10;94.20;;;;;;4969405;28;20043;-78
2023/09/25 00:06:02;;;;;;;1.50;0.60;;;13.00;93.80;;;;;;4971341;28;20063;-78
2023/09/25 00:08:28;;;;;;;2.67;0.90;;;13.20;93.50;;;;;;4973399;28;20046;-79
2023/09/25 00:10:54;;;;;;;2.05;1.00;;;13.20;93.60;;;;;;4970031;28;20512;-78
2023/09/25 00:13:20;;;;;;;4.43;1.00;;;13.20;93.60;;;;;;4970966;28;20480;-78
2023/09/25 00:15:46;;;;;;;1.23;0.95;;;13.20;93.60;;;;;;4970843;28;20778;-78
2023/09/25 00:18:13;;;;;;;0.80;0.77;;;13.20;93.60;;;;;;4968797;28;20039;-79
2023/09/25 00:20:39;;;;;;;2.35;0.90;;;13.30;93.50;;;;;;4983932;28;20042;-79
2023/09/25 00:23:05;;;;;;;1.15;0.90;;;13.30;93.50;;;;;;4968763;28;20034;-78
2023/09/25 00:25:31;;;;;;;2.38;0.82;;;13.40;93.30;;;;;;4969576;28;20359;-78
2023/09/25 00:27:57;;;;;;;1.20;0.88;;;13.40;93.20;;;;;;4970273;28;20031;-78
2023/09/25 00:30:23;;;;;;;1.75;0.95;;;13.30;93.30;;;;;;4954869;28;20037;-78
2023/09/25 00:32:50;;;;;;;1.63;0.80;;;13.20;93.40;;;;;;4972736;28;20030;-79
2023/09/25 00:35:16;;;;;;;1.67;0.85;;;13.30;93.40;;;;;;4952932;28;20034;-78
2023/09/25 00:37:42;;;;;;;3.13;0.90;;;13.30;93.40;;;;;;4969622;28;20046;-79
2023/09/25 00:40:17;;;;;;;1.25;0.80;;;13.30;93.50;;;;;;4967894;28;20035;-78
2023/09/25 00:42:46;;;;;;;2.63;0.98;;;13.20;93.60;;;;;;4964670;28;20082;-78
2023/09/25 00:45:12;;;;;;;2.47;1.17;;;13.40;93.70;;;;;;4966300;28;20121;-78
2023/09/25 00:47:41;;;;;;;2.97;1.10;;;13.40;93.60;;;;;;4956522;28;20076;-78
2023/09/25 00:50:07;;;;;;;3.15;1.17;;;13.30;93.50;;;;;;4970743;28;20035;-78
2023/09/25 00:52:33;;;;;;;0.65;0.60;;;13.40;93.40;;;;;;4973349;28;20092;-79
2023/09/25 00:54:59;;;;;;;2.10;0.98;;;13.30;93.50;;;;;;4972077;28;20027;-78
2023/09/25 00:57:25;;;;;;;1.52;1.02;;;13.30;93.40;;;;;;4969976;28;20558;-78
2023/09/25 00:59:50;;;;;;;1.65;0.90;;;13.40;93.20;;;;;;4970728;28;20039;-78
2023/09/25 01:02:16;;;;;;;2.60;1.17;;;13.40;93.20;;;;;;4972852;28;20035;-78
2023/09/25 01:04:43;;;;;;;1.33;0.90;;;13.30;93.50;;;;;;4968724;28;20483;-79
2023/09/25 01:07:08;;;;;;;2.67;1.05;;;13.40;93.30;;;;;;4973994;28;20368;-78
2023/09/25 01:09:34;;;;;;;0.93;0.70;;;13.40;93.20;;;;;;4969151;28;20033;-78
2023/09/25 01:11:59;;;;;;;1.45;0.73;;;13.30;93.40;;;;;;4972646;28;20030;-78
2023/09/25 01:14:25;;;;;;;1.17;0.70;;;13.30;93.60;;;;;;4974442;28;20038;-78
2023/09/25 01:16:51;;;;;;;2.58;0.90;;;13.30;93.20;;;;;;4967630;28;20019;-78
2023/09/25 01:19:16;;;;;;;2.40;0.90;;;13.30;93.20;;;;;;4971785;28;20077;-78
2023/09/25 01:21:44;;;;;;;1.60;0.98;;;13.40;93.10;;;;;;4967638;28;20467;-78
2023/09/25 01:24:10;;;;;;;2.33;1.00;;;13.40;93.00;;;;;;4969238;28;20480;-78
2023/09/25 01:26:35;;;;;;;2.08;0.88;;;13.40;93.00;;;;;;4960255;28;20038;-79
2023/09/25 01:29:02;;;;;;;1.83;1.10;;;13.40;93.00;;;;;;4957303;28;20054;-78
2023/09/25 01:31:27;;;;;;;1.65;0.85;;;13.40;93.00;;;;;;4967759;28;20498;-78
2023/09/25 01:33:53;;;;;;;1.05;0.80;;;13.50;92.80;;;;;;4972850;28;20035;-78
2023/09/25 01:36:19;;;;;;;3.67;0.95;;;13.50;92.80;;;;;;4970409;28;20479;-79
2023/09/25 01:38:46;;;;;;;1.58;0.90;;;13.40;93.00;;;;;;4969285;28;20035;-78
2023/09/25 01:41:12;;;;;;;1.58;1.02;;;13.30;93.10;;;;;;4969781;28;20069;-78
2023/09/25 01:43:37;;;;;;;1.83;0.80;;;13.40;93.10;;;;;;4952938;28;20086;-78
2023/09/25 01:46:03;;;;;;;1.45;0.80;;;13.30;93.00;;;;;;4967497;28;20034;-78
2023/09/25 01:48:29;;;;;;;1.52;0.93;;;13.40;92.90;;;;;;4970343;28;20589;-78
2023/09/25 01:50:54;;;;;;;1.77;1.35;;;13.40;93.10;;;;;;4972684;28;20037;-78
2023/09/25 01:53:20;;;;;;;2.45;0.90;;;13.40;92.80;;;;;;4971574;28;20034;-78
2023/09/25 01:55:45;;;;;;;2.78;1.00;;;13.40;93.00;;;;;;4968836;28;20039;-78
2023/09/25 01:58:11;;;;;;;1.52;0.70;;;13.20;93.00;;;;;;4968842;28;20483;-78
2023/09/25 02:00:37;;;;;;;1.45;1.00;;;13.30;93.10;;;;;;4954014;28;20507;-78
2023/09/25 02:03:03;;;;;;;1.33;1.10;;;13.40;92.90;;;;;;4970840;28;20034;-78
2023/09/25 02:05:28;;;;;;;2.17;0.70;;;13.30;92.80;;;;;;4969295;28;20521;-78
2023/09/25 02:07:54;;;;;;;1.58;0.98;;;13.20;92.90;;;;;;4975278;28;20066;-78
2023/09/25 02:10:21;;;;;;;1.20;0.80;;;13.20;93.10;;;;;;4959463;28;20370;-78
2023/09/25 02:12:46;;;;;;;4.07;1.55;;;13.30;92.80;;;;;;4972195;28;20658;-78
2023/09/25 02:15:12;;;;;;;1.27;0.90;;;13.20;92.90;;;;;;4975418;28;20027;-78
2023/09/25 02:17:38;;;;;;;1.20;0.80;;;13.20;92.80;;;;;;4955898;28;20072;-78
2023/09/25 02:20:22;;;;;;;2.38;0.80;;;13.30;92.80;;;;;;4958323;28;20043;-78
2023/09/25 02:22:48;;;;;;;2.72;0.98;;;13.20;92.90;;;;;;4974761;28;20023;-78
2023/09/25 02:25:14;;;;;;;2.50;1.10;;;13.20;93.00;;;;;;4975853;28;20027;-80
2023/09/25 02:27:39;;;;;;;2.45;0.80;;;13.20;93.00;;;;;;4971390;28;20031;-80
2023/09/25 02:30:09;;;;;;;2.92;0.88;;;13.20;92.80;;;;;;4971682;28;20427;-80
2023/09/25 02:32:35;;;;;;;1.67;1.00;;;13.20;93.00;;;;;;4972342;28;20035;-80
2023/09/25 02:35:01;;;;;;;1.63;1.10;;;13.10;93.00;;;;;;4950250;28;20030;-80
2023/09/25 02:37:28;;;;;;;3.03;0.90;;;13.10;93.10;;;;;;4956905;28;20029;-79
2023/09/25 02:39:54;;;;;;;1.13;0.85;;;13.10;93.10;;;;;;4975430;28;20077;-80
2023/09/25 02:42:19;;;;;;;1.95;0.77;;;13.00;93.00;;;;;;4973281;28;20559;-80
2023/09/25 02:44:45;;;;;;;1.60;1.00;;;13.00;93.20;;;;;;4973357;28;20023;-81
2023/09/25 02:47:10;;;;;;;1.55;0.90;;;13.00;93.30;;;;;;4953884;28;20031;-80
2023/09/25 02:49:36;;;;;;;2.58;1.17;;;13.00;93.20;;;;;;4971928;28;20042;-78
2023/09/25 02:52:01;;;;;;;1.70;0.88;;;12.90;93.40;;;;;;4971307;28;20023;-80
2023/09/25 02:54:27;;;;;;;1.60;0.73;;;12.90;93.60;;;;;;4987583;28;20122;-80
2023/09/25 02:56:53;;;;;;;1.70;0.95;;;12.80;93.70;;;;;;4972594;28;20146;-78
2023/09/25 02:59:18;;;;;;;1.92;0.98;;;12.80;93.40;;;;;;4957459;28;20616;-80
2023/09/25 03:01:44;;;;;;;2.25;0.80;;;13.00;93.30;;;;;;4971497;28;20701;-80
2023/09/25 03:04:10;;;;;;;1.52;0.98;;;12.90;93.40;;;;;;4972556;28;20070;-80
2023/09/25 03:06:36;;;;;;;1.60;1.00;;;12.90;93.70;;;;;;4969837;28;20041;-78
2023/09/25 03:09:02;;;;;;;0.85;0.70;;;12.70;93.70;;;;;;4971284;28;20038;-78
2023/09/25 03:11:27;;;;;;;1.50;0.90;;;12.70;93.70;;;;;;4956618;28;20030;-81
2023/09/25 03:13:53;;;;;;;1.20;1.00;;;12.70;94.10;;;;;;4972700;28;20038;-78
2023/09/25 03:16:19;;;;;;;1.50;1.15;;;12.70;93.80;;;;;;4971213;28;20097;-78
2023/09/25 03:18:44;;;;;;;1.92;0.88;;;12.60;94.20;;;;;;4972701;28;20038;-78
2023/09/25 03:21:11;;;;;;;1.35;0.90;;;12.60;94.00;;;;;;4971916;28;20046;-78
2023/09/25 03:23:36;;;;;;;1.92;1.40;;;12.60;94.20;;;;;;4973163;28;20031;-78
2023/09/25 03:26:02;;;;;;;2.17;0.98;;;12.50;94.30;;;;;;4973306;28;20030;-79
2023/09/25 03:28:27;;;;;;;1.23;0.90;;;12.50;94.40;;;;;;4957731;28;20423;-78
2023/09/25 03:30:53;;;;;;;1.33;1.15;;;12.50;94.10;;;;;;4972610;28;20035;-79
2023/09/25 03:33:20;;;;;;;2.10;0.82;;;12.50;94.20;;;;;;4952468;28;20563;-78
2023/09/25 03:35:46;;;;;;;1.27;1.00;;;12.50;94.30;;;;;;4969592;28;20474;-80
2023/09/25 03:38:11;;;;;;;1.13;1.02;;;12.50;94.30;;;;;;4970544;28;20249;-81
2023/09/25 03:40:37;;;;;;;2.08;0.80;;;12.50;94.70;;;;;;4971095;28;20105;-78
2023/09/25 03:43:02;;;;;;;1.05;0.88;;;12.40;94.60;;;;;;4973497;28;20081;-78
2023/09/25 03:45:28;;;;;;;1.58;0.90;;;12.40;94.70;;;;;;4977820;28;20030;-80
2023/09/25 03:47:54;;;;;;;2.22;1.13;;;12.30;94.80;;;;;;4954225;28;20642;-77
2023/09/25 03:50:19;;;;;;;1.27;0.80;;;12.20;95.30;;;;;;4974000;28;20030;-78
2023/09/25 03:52:45;;;;;;;3.83;1.02;;;12.30;95.00;;;;;;4974644;28;20033;-78
2023/09/25 03:55:11;;;;;;;1.38;1.00;;;12.20;95.30;;;;;;4975461;28;20057;-79
2023/09/25 03:57:36;;;;;;;3.53;0.80;;;12.20;95.40;;;;;;4974086;28;20050;-78
2023/09/25 04:00:06;;;;;;;1.27;1.08;;;12.20;95.20;;;;;;4973764;28;21975;-78
2023/09/25 04:02:31;;;;;;;1.80;1.10;;;12.30;95.10;;;;;;4970371;28;20123;-78
2023/09/25 04:04:57;;;;;;;0.65;0.63;;;12.40;94.80;;;;;;4973902;28;20071;-79
2023/09/25 04:07:22;;;;;;;0.70;0.70;;;12.40;94.80;;;;;;4956906;28;20023;-77
2023/09/25 04:09:48;;;;;;;2.10;0.90;;;12.40;95.00;;;;;;4969343;28;20046;-78
2023/09/25 04:12:14;;;;;;;1.05;0.93;;;12.30;94.90;;;;;;4972585;28;20038;-78
2023/09/25 04:14:41;;;;;;;1.83;1.00;;;12.20;95.30;;;;;;4957576;28;20439;-80
2023/09/25 04:17:08;;;;;;;1.10;1.00;;;12.20;95.20;;;;;;4972264;28;20483;-80
2023/09/25 04:19:33;;;;;;;1.55;1.30;;;12.20;95.30;;;;;;4973665;28;20054;-79
2023/09/25 04:21:59;;;;;;;1.52;1.30;;;12.30;95.10;;;;;;4966197;28;20147;-80
2023/09/25 04:24:25;;;;;;;1.60;1.00;;;12.30;95.50;;;;;;4954338;28;20034;-79
2023/09/25 04:26:51;;;;;;;7.75;1.20;;;12.20;95.40;;;;;;4956783;28;20390;-79
2023/09/25 04:29:17;;;;;;;2.97;0.80;;;12.20;95.50;;;;;;4971146;28;20046;-79
2023/09/25 04:31:46;;;;;;;3.17;1.23;;;12.30;95.50;;;;;;4966921;28;20150;-80
2023/09/25 04:34:12;;;;;;;2.13;1.08;;;12.20;95.70;;;;;;4971326;28;20035;-80
2023/09/25 04:36:38;;;;;;;1.60;1.02;;;12.20;95.50;;;;;;4969216;28;20027;-79
2023/09/25 04:39:04;;;;;;;1.38;1.00;;;12.20;95.60;;;;;;4969136;28;20041;-80
2023/09/25 04:41:30;;;;;;;1.63;1.15;;;12.30;95.60;;;;;;4968022;28;20043;-80
2023/09/25 04:43:55;;;;;;;1.90;0.93;;;12.30;95.60;;;;;;4952252;28;20034;-80
2023/09/25 04:46:21;;;;;;;1.08;0.75;;;12.30;95.60;;;;;;4968387;28;20077;-80
2023/09/25 04:48:47;;;;;;;0.80;0.80;;;12.30;95.60;;;;;;4971465;28;20510;-80
2023/09/25 04:51:16;;;;;;;2.08;0.80;;;12.20;95.50;;;;;;4970532;28;20039;-80
2023/09/25 04:53:42;;;;;;;1.35;1.00;;;12.30;95.50;;;;;;4969096;28;20023;-79
2023/09/25 04:56:08;;;;;;;1.35;1.02;;;12.20;95.70;;;;;;4973233;28;20054;-80
2023/09/25 04:58:34;;;;;;;0.95;0.82;;;12.20;95.90;;;;;;4950533;28;20057;-79
2023/09/25 05:00:59;;;;;;;1.67;1.02;;;12.20;95.70;;;;;;4949902;28;20594;-80
2023/09/25 05:03:25;;;;;;;1.17;1.08;;;12.20;95.90;;;;;;4967035;28;20042;-80
2023/09/25 05:05:51;;;;;;;1.35;0.75;;;12.20;95.80;;;;;;4968568;28;20084;-80
2023/09/25 05:08:17;;;;;;;4.43;1.02;;;12.20;95.90;;;;;;4971274;28;20395;-79
2023/09/25 05:10:44;;;;;;;2.65;1.30;;;12.10;96.20;;;;;;4972777;28;20035;-79
2023/09/25 05:13:10;;;;;;;3.72;1.30;;;12.10;96.20;;;;;;4970354;28;20034;-80
2023/09/25 05:15:35;;;;;;;4.07;1.17;;;12.10;96.40;;;;;;4970309;28;20027;-80
2023/09/25 05:18:02;;;;;;;1.60;1.00;;;12.20;96.20;;;;;;4948506;28;20042;-79
2023/09/25 05:20:28;;;;;;;2.17;1.20;;;12.20;96.10;;;;;;4964094;28;20035;-80
2023/09/25 05:22:55;;;;;;;1.20;1.00;;;12.20;96.10;;;;;;4968866;28;20035;-80
2023/09/25 05:25:20;;;;;;;4.18;1.20;;;12.20;95.90;;;;;;4973549;28;20474;-80
2023/09/25 05:27:50;;;;;;;1.30;0.95;;;12.30;96.30;;;;;;4969929;28;20078;-80
2023/09/25 05:30:17;;;;;;;2.80;1.65;;;12.20;96.00;;;;;;4970362;28;20035;-80
2023/09/25 05:32:46;;;;;;;1.60;1.10;;;12.20;96.20;;;;;;4969314;28;20041;-80
2023/09/25 05:35:12;;;;;;;8.32;1.55;;;12.20;96.40;;;;;;4964940;28;20110;-80
2023/09/25 05:37:39;;;;;;;1.50;1.10;;;12.20;96.40;;;;;;4954955;28;20038;-80
2023/09/25 05:40:10;;;;;;;1.98;1.35;;;12.20;96.10;;;;;;4967870;28;20038;-80
2023/09/25 05:42:37;;;;;;;2.08;0.95;;;12.20;96.10;;;;;;4985507;28;20672;-80
2023/09/25 05:45:05;;;;;;;4.20;1.48;;;12.30;96.40;;;;;;4966054;28;20390;-80
2023/09/25 05:47:31;;;;;;;3.25;1.23;;;12.30;96.20;;;;;;4964314;28;20595;-80
2023/09/25 05:49:57;;;;;;;1.15;1.00;;;12.40;96.20;;;;;;4971464;28;20030;-80
2023/09/25 05:52:22;;;;;;;2.35;1.20;;;12.30;96.10;;;;;;4966012;28;20069;-78
2023/09/25 05:54:49;;;;;;;2.08;1.20;;;12.20;96.30;;;;;;4966858;28;20114;-80
2023/09/25 05:57:15;;;;;;;1.67;1.27;;;12.30;96.20;;;;;;4970714;28;20081;-79
2023/09/25 05:59:40;;;;;;;2.10;1.10;;;12.30;96.20;;;;;;4969677;28;20080;-80
2023/09/25 06:02:07;;;;;;;5.30;1.20;;;12.30;96.20;;;;;;4951023;28;20050;-80
2023/09/25 06:04:35;;;;;;;2.45;1.58;;;12.30;96.20;;;;;;4968629;28;20044;-80
2023/09/25 06:07:01;;;;;;;1.40;1.30;;;12.40;96.00;;;;;;4970060;28;20468;-78
2023/09/25 06:09:26;;;;;;;4.75;1.38;;;12.50;96.10;;;;;;4970832;28;20117;-79
2023/09/25 06:11:52;;;;;;;2.00;1.13;;;12.50;96.00;;;;;;4968498;28;20026;-80
2023/09/25 06:14:18;;;;;;;1.58;1.02;;;12.60;95.70;;;;;;4966183;28;20027;-80
2023/09/25 06:16:43;;;;;;;2.58;1.35;;;12.70;95.70;;;;;;4965661;28;20046;-78
2023/09/25 06:19:09;;;;;;;1.33;1.20;;;12.70;95.70;;;;;;4973898;28;20036;-78
2023/09/25 06:21:35;;;;;;;2.05;1.15;;;12.70;95.60;;;;;;4951184;28;20050;-79
2023/09/25 06:24:03;;;;;;;2.22;1.35;;;12.80;95.50;;;;;;4951395;28;20046;-78
2023/09/25 06:26:29;;;;;;;4.60;1.20;;;12.80;95.20;;;;;;4967002;28;20038;-79
2023/09/25 06:28:55;;;;;;;1.70;1.10;;;12.90;95.30;;;;;;4969033;28;20035;-78
2023/09/25 06:31:23;;;;;;;1.85;1.45;;;13.00;95.10;;;;;;4970983;28;20042;-78
2023/09/25 06:33:49;;;;;;;3.78;1.33;;;13.10;95.00;;;;;;4969114;28;20027;-79
2023/09/25 06:36:15;;;;;;;3.55;1.30;;;13.20;94.90;;;;;;4967236;28;20402;-79
2023/09/25 06:38:40;;;;;;;2.90;1.27;;;13.30;94.80;;;;;;4967227;28;20034;-78
2023/09/25 06:41:09;;;;;;;2.17;1.65;;;13.30;94.90;;;;;;4950880;28;20038;-78
2023/09/25 06:43:34;;;;;;;1.80;1.00;;;13.40;94.80;;;;;;4281266;28;10000447;-78
2023/09/25 06:46:00;;;;;;;1.75;1.25;;;13.50;94.40;;;;;;4970807;28;20115;-78
2023/09/25 06:48:26;;;;;;;1.48;1.30;;;13.60;94.10;;;;;;4968837;28;20135;-80
2023/09/25 06:50:51;;;;;;;3.03;1.10;;;13.60;94.00;;;;;;4966075;28;20131;-79
2023/09/25 06:53:17;;;;;;;5.10;1.17;;;13.70;94.00;;;;;;4969484;28;20396;-80
2023/09/25 06:55:44;;;;;;;2.65;1.45;;;13.70;93.90;;;;;;4965167;28;20041;-79
2023/09/25 06:58:10;;;;;;;2.40;1.35;;;13.90;93.80;;;;;;4968416;28;20479;-78
2023/09/25 07:00:36;;;;;;;1.70;1.17;;;13.90;93.80;;;;;;4955065;28;20042;-78
2023/09/25 07:03:01;;;;;;;2.13;1.27;;;14.00;93.70;;;;;;4976147;28;20039;-79
2023/09/25 07:05:28;;;;;;;1.55;1.13;;;14.20;93.60;;;;;;4973963;28;20046;-79
2023/09/25 07:07:54;;;;;;;1.42;0.93;;;14.30;93.40;;;;;;4971756;28;20039;-79
2023/09/25 07:10:19;;;;;;;1.52;1.20;;;14.40;93.40;;;;;;4954872;28;20026;-78
2023/09/25 07:12:45;;;;;;;3.17;1.10;;;14.40;93.40;;;;;;4956210;28;20109;-79
2023/09/25 07:15:11;;;;;;;5.15;1.38;;;14.60;93.20;;;;;;4971160;28;20029;-78
2023/09/25 07:17:36;;;;;;;3.17;1.23;;;14.70;93.20;;;;;;4971027;28;20035;-78
2023/09/25 07:20:02;;;;;;;3.28;1.25;;;14.80;92.70;;;;;;4967691;28;20090;-78
2023/09/25 07:22:28;;;;;;;6.10;1.33;;;14.90;92.60;;;;;;4970387;28;20077;-79
2023/09/25 07:24:54;;;;;;;1.40;0.98;;;14.90;92.70;;;;;;4970891;28;20035;-80
2023/09/25 07:27:19;;;;;;;2.47;1.05;;;15.10;92.40;;;;;;4955660;28;20387;-80
2023/09/25 07:29:48;;;;;;;2.80;1.42;;;15.20;92.40;;;;;;4952731;28;20435;-78
2023/09/25 07:32:13;;;;;;;3.42;1.27;;;15.40;92.30;;;;;;4972531;28;20027;-78
2023/09/25 07:34:40;;;;;;;2.60;1.45;;;15.40;92.30;;;;;;4974752;28;20396;-79
2023/09/25 07:37:05;;;;;;;3.25;1.20;;;15.50;92.00;;;;;;4950142;28;20093;-79
2023/09/25 07:39:40;;;;;;;2.60;1.08;;;15.50;92.00;;;;;;4969400;28;20030;-78
2023/09/25 07:42:06;;;;;;;4.50;1.63;;;15.50;92.20;;;;;;4969660;28;20089;-79
2023/09/25 07:44:33;;;;;;;3.00;1.20;;;15.70;91.60;;;;;;4986668;28;20034;-79
2023/09/25 07:47:00;;;;;;;2.08;1.58;;;15.80;91.90;;;;;;4970848;28;20031;-79
2023/09/25 07:49:27;;;;;;;2.15;1.40;;;16.00;91.20;;;;;;4968045;28;20058;-78
2023/09/25 07:51:53;;;;;;;2.20;1.35;;;16.10;91.30;;;;;;4965436;28;20113;-80
2023/09/25 07:54:19;;;;;;;3.80;1.02;;;16.20;90.80;;;;;;4952994;28;20038;-79
2023/09/25 07:56:44;;;;;;;3.03;1.00;;;16.40;91.00;;;;;;4967952;28;20049;-79
2023/09/25 07:59:13;;;;;;;2.25;1.25;;;16.50;90.30;;;;;;4970859;28;20039;-79
2023/09/25 08:01:39;;;;;;;8.55;1.50;;;16.70;90.60;;;;;;4971057;28;20511;-79
2023/09/25 08:04:05;;;;;;;2.35;1.23;;;16.60;90.60;;;;;;4970517;28;20034;-79
2023/09/25 08:06:31;;;;;;;2.67;1.30;;;16.60;90.60;;;;;;4955356;28;20032;-79
2023/09/25 08:08:57;;;;;;;2.85;1.38;;;16.70;90.60;;;;;;4969609;28;20038;-80
2023/09/25 08:11:24;;;;;;;2.92;1.13;;;16.90;88.60;;;;;;4969452;28;20062;-79
2023/09/25 08:13:50;;;;;;;1.58;1.00;;;16.90;90.40;;;;;;4967568;28;20058;-78
2023/09/25 08:16:16;;;;;;;2.58;1.20;;;17.20;90.00;;;;;;4970477;28;20059;-79
2023/09/25 08:18:42;;;;;;;2.22;1.38;;;17.30;88.90;;;;;;4968666;28;20042;-79
2023/09/25 08:21:09;;;;;;;4.07;1.23;;;17.50;88.50;;;;;;4950836;28;20101;-79
2023/09/25 08:23:35;;;;;;;3.70;1.40;;;17.50;88.10;;;;;;4967421;28;20029;-78
2023/09/25 08:26:05;;;;;;;1.77;1.40;;;17.50;89.20;;;;;;4969605;28;20581;-80
2023/09/25 08:28:31;;;;;;;2.75;1.20;;;17.70;87.90;;;;;;4953596;28;20065;-78
2023/09/25 08:30:56;;;;;;;2.40;1.00;;;18.10;86.20;;;;;;4975114;28;20113;-79
2023/09/25 08:33:22;;;;;;;2.90;1.02;;;18.00;87.00;;;;;;4969408;28;20062;-79
2023/09/25 08:35:48;;;;;;;2.42;1.33;;;18.10;85.70;;;;;;4953559;28;20050;-79
2023/09/25 08:38:13;;;;;;;2.78;1.30;;;18.30;85.40;;;;;;4970511;28;20043;-78
2023/09/25 08:40:44;;;;;;;1.88;1.10;;;18.50;84.40;;;;;;5002080;28;20042;-79
2023/09/25 08:43:10;;;;;;;2.03;1.40;;;18.70;84.60;;;;;;4955853;28;20047;-78
2023/09/25 08:45:36;;;;;;;1.75;1.10;;;18.70;84.60;;;;;;4953085;28;20027;-79
2023/09/25 08:48:02;;;;;;;2.40;1.20;;;18.80;83.70;;;;;;4972739;28;20558;-78
2023/09/25 08:50:27;;;;;;;2.20;0.80;;;18.80;85.20;;;;;;4970852;28;20035;-79
2023/09/25 08:52:56;;;;;;;1.33;1.10;;;18.90;84.70;;;;;;4952712;28;20467;-78
2023/09/25 08:55:22;;;;;;;5.40;1.65;;;19.20;82.90;;;;;;4971201;28;20026;-79
2023/09/25 08:57:48;;;;;;;2.00;1.13;;;19.40;83.60;;;;;;4971282;28;20047;-79
2023/09/25 09:00:15;;;;;;;1.58;0.90;;;19.70;82.20;;;;;;4965623;28;20035;-79
2023/09/25 09:02:40;;;;;;;3.83;0.88;;;20.00;80.90;;;;;;4967499;28;20070;-80
2023/09/25 09:05:12;;;;;;;1.65;1.20;;;20.10;80.40;;;;;;4973169;28;20443;-79
2023/09/25 09:07:39;;;;;;;1.48;0.95;;;20.00;79.00;;;;;;4936607;28;20503;-80
2023/09/25 09:10:06;;;;;;;1.88;1.23;;;20.10;79.00;;;;;;4950042;28;20551;-80
2023/09/25 09:12:34;;;;;;;2.83;1.30;;;20.20;80.10;;;;;;4968175;28;20718;-80
2023/09/25 09:15:00;;;;;;;2.47;1.40;;;20.30;80.90;;;;;;4969482;28;20402;-79
2023/09/25 09:17:26;;;;;;;3.97;1.20;;;20.20;80.20;;;;;;4951599;28;20027;-80
2023/09/25 09:19:54;;;;;;;1.83;1.10;;;20.50;80.00;;;;;;4934791;28;20035;-79
2023/09/25 09:22:21;;;;;;;2.33;1.20;;;20.30;82.20;;;;;;4965659;28;21130;-79
2023/09/25 09:24:51;;;;;;;2.92;1.15;;;20.50;80.60;;;;;;4966135;28;20177;-80
2023/09/25 09:27:20;;;;;;;1.65;1.00;;;20.70;80.30;;;;;;4970229;28;20515;-79
2023/09/25 09:29:46;;;;;;;4.10;0.98;;;20.90;78.60;;;;;;4967818;28;20142;-79
2023/09/25 09:32:14;;;;;;;2.38;1.30;;;21.20;79.50;;;;;;4971585;28;20027;-80
2023/09/25 09:34:39;;;;;;;1.63;0.95;;;21.10;79.10;;;;;;4957931;28;20035;-80
2023/09/25 09:37:08;;;;;;;1.05;0.90;;;21.20;79.60;;;;;;4951870;28;20030;-80
2023/09/25 09:39:40;;;;;;;3.00;1.20;;;21.40;79.60;;;;;;4948768;28;20038;-79
2023/09/25 09:42:08;;;;;;;1.92;1.13;;;21.40;80.60;;;;;;4952759;28;20046;-80
2023/09/25 09:44:35;;;;;;;2.30;1.10;;;21.50;80.70;;;;;;4967056;28;20031;-79
2023/09/25 09:47:05;;;;;;;3.22;1.10;;;21.70;78.10;;;;;;4985490;28;20573;-80
2023/09/25 09:49:32;;;;;;;2.75;1.17;;;22.00;77.20;;;;;;4975833;28;20423;-80
2023/09/25 09:51:58;;;;;;;4.57;1.35;;;22.20;78.10;;;;;;4969133;28;20746;-80
2023/09/25 09:54:24;;;;;;;1.45;1.13;;;22.00;78.50;;;;;;4972106;28;20046;-79
2023/09/25 09:56:50;;;;;;;2.25;1.00;;;22.60;78.90;;;;;;4969900;28;20422;-80
2023/09/25 09:59:16;;;;;;;1.38;1.00;;;22.70;76.60;;;;;;4970706;28;20038;-80
2023/09/25 10:01:47;;;;;;;3.40;1.02;;;22.70;76.80;;;;;;4955308;28;20530;-80
2023/09/25 10:04:13;;;;;;;2.05;1.00;;;22.80;76.20;;;;;;4969951;28;20038;-79
2023/09/25 10:06:51;;;;;;;2.53;1.30;;;23.30;74.60;;;;;;4970300;28;20035;-80
2023/09/25 10:09:18;;;;;;;2.90;1.33;;;23.40;74.20;;;;;;4952655;28;20026;-80
2023/09/25 10:11:46;;;;;;;1.73;1.20;;;23.10;75.80;;;;;;4971575;28;20039;-80
2023/09/25 10:14:12;;;;;;;2.53;1.30;;;23.70;75.00;;;;;;4972321;28;20034;-80
2023/09/25 10:17:00;;;;;;;2.08;1.00;;;23.60;73.50;;;;;;4970103;28;20057;-80
2023/09/25 10:19:40;;;;;;;2.45;0.98;;;23.80;74.20;;;;;;4951948;28;20038;-80
2023/09/25 10:22:12;;;;;;;1.63;1.10;;;23.70;75.60;;;;;;4973053;28;20522;-81
2023/09/25 10:24:38;;;;;;;2.30;1.00;;;23.90;75.50;;;;;;4967494;28;20027;-81
2023/09/25 10:27:04;;;;;;;1.40;1.05;;;23.90;74.90;;;;;;4952114;28;20475;-80
2023/09/25 10:29:30;;;;;;;1.80;0.90;;;23.90;74.10;;;;;;4968963;28;20046;-81
2023/09/25 10:31:57;;;;;;;5.55;1.15;;;24.10;74.60;;;;;;4958692;28;20427;-81
2023/09/25 10:34:25;;;;;;;2.13;0.80;;;24.00;72.20;;;;;;4975603;28;20063;-81
2023/09/25 10:36:52;;;;;;;3.53;1.33;;;24.60;72.90;;;;;;4974231;28;20168;-80
2023/09/25 10:39:18;;;;;;;5.70;1.00;;;24.60;72.00;;;;;;4977594;28;20430;-81
2023/09/25 10:41:47;;;;;;;1.55;1.00;;;24.30;70.00;;;;;;4971530;28;20106;-81
2023/09/25 10:44:12;;;;;;;1.65;1.08;;;24.70;69.40;;;;;;4980343;28;20471;-81
2023/09/25 10:46:39;;;;;;;3.17;1.10;;;25.00;71.10;;;;;;4960772;28;20031;-81
2023/09/25 10:49:06;;;;;;;2.53;1.10;;;24.90;71.30;;;;;;4974129;28;20061;-81
2023/09/25 10:51:31;;;;;;;1.05;0.85;;;25.00;69.80;;;;;;4979311;28;20514;-81
2023/09/25 10:53:57;;;;;;;2.05;1.10;;;25.20;69.50;;;;;;4978277;28;20061;-80
2023/09/25 10:56:23;;;;;;;2.08;1.00;;;25.20;68.30;;;;;;4975762;28;20031;-80
2023/09/25 10:58:52;;;;;;;2.58;0.75;;;25.60;68.70;;;;;;4974212;28;20613;-80
2023/09/25 11:01:27;;;;;;;1.88;0.85;;;25.40;66.60;;;;;;4975725;28;20128;-81
2023/09/25 11:03:53;;;;;;;1.58;0.75;;;25.50;66.20;;;;;;4973351;28;20058;-80
2023/09/25 11:06:19;;;;;;;1.50;0.90;;;25.60;67.40;;;;;;4977091;28;20027;-81
2023/09/25 11:08:44;;;;;;;1.20;0.93;;;25.50;64.90;;;;;;4961361;28;20081;-81
2023/09/25 11:11:13;;;;;;;1.67;0.93;;;25.40;65.10;;;;;;4956381;28;20038;-81
2023/09/25 11:13:39;;;;;;;1.45;1.05;;;25.60;66.30;;;;;;4957530;28;20039;-81
2023/09/25 11:16:06;;;;;;;1.52;0.80;;;25.90;64.40;;;;;;4990221;28;20049;-79
2023/09/25 11:18:31;;;;;;;1.20;0.93;;;26.00;65.70;;;;;;4955879;28;20039;-80
2023/09/25 11:20:57;;;;;;;2.55;0.90;;;26.10;63.40;;;;;;4975883;28;20057;-80
2023/09/25 11:23:24;;;;;;;0.95;0.75;;;26.00;65.10;;;;;;4976463;28;20405;-81
2023/09/25 11:25:51;;;;;;;1.20;0.80;;;25.90;66.60;;;;;;4978450;28;20034;-80
2023/09/25 11:28:17;;;;;;;1.20;0.90;;;25.50;66.20;;;;;;4973686;28;20038;-81
2023/09/25 11:30:47;;;;;;;1.48;0.90;;;25.90;64.80;;;;;;4611796;28;10000523;-81
2023/09/25 11:33:20;;;;;;;0.82;0.70;;;26.20;60.30;;;;;;4986561;28;20434;-81
2023/09/25 11:35:49;;;;;;;1.05;0.85;;;26.20;63.40;;;;;;4986024;28;20035;-81
2023/09/25 11:38:17;;;;;;;1.40;0.95;;;26.30;62.50;;;;;;4972053;28;20756;-80
2023/09/25 11:40:43;;;;;;;2.17;1.15;;;26.00;64.80;;;;;;4972470;28;20479;-80
2023/09/25 11:43:09;;;;;;;1.92;0.80;;;26.20;63.30;;;;;;4984523;28;20046;-82
2023/09/25 11:45:35;;;;;;;3.10;0.95;;;26.20;62.30;;;;;;4972841;28;20519;-81
2023/09/25 11:48:01;;;;;;;1.33;0.70;;;26.00;64.00;;;;;;4968811;28;20089;-81
2023/09/25 11:50:27;;;;;;;2.60;0.93;;;26.10;63.70;;;;;;4967721;28;20558;-81
2023/09/25 11:52:53;;;;;;;1.17;0.65;;;26.40;63.00;;;;;;4967174;28;20039;-80
2023/09/25 11:55:19;;;;;;;1.48;0.88;;;26.30;63.90;;;;;;4969225;28;20038;-81
2023/09/25 11:57:48;;;;;;;1.83;0.90;;;26.60;60.00;;;;;;4969390;28;20035;-81
2023/09/25 12:00:23;;;;;;;1.60;0.82;;;26.30;65.50;;;;;;4963982;28;20035;-81
2023/09/25 12:02:49;;;;;;;1.03;0.87;;;26.20;65.20;;;;;;4969139;28;20094;-81
2023/09/25 12:05:18;;;;;;;1.30;1.05;;;26.70;62.80;;;;;;4952683;28;20258;-82
2023/09/25 12:07:43;;;;;;;3.28;1.10;;;26.80;61.80;;;;;;4972538;28;20482;-81
2023/09/25 12:10:12;;;;;;;2.67;1.00;;;26.90;63.20;;;;;;4967991;28;20027;-81
2023/09/25 12:12:39;;;;;;;2.25;1.27;;;27.30;63.10;;;;;;4970415;28;20121;-81
2023/09/25 12:15:07;;;;;;;1.58;0.90;;;27.00;62.30;;;;;;4971331;28;20035;-80
2023/09/25 12:17:33;;;;;;;2.05;1.08;;;26.80;64.20;;;;;;4969015;28;20038;-80
2023/09/25 12:20:11;;;;;;;1.80;1.08;;;27.30;62.40;;;;;;4968592;28;20027;-81
2023/09/25 12:22:44;;;;;;;1.17;0.82;;;27.20;64.00;;;;;;4986429;28;20038;-80
2023/09/25 12:25:11;;;;;;;2.42;1.10;;;27.20;64.00;;;;;;4930851;28;20037;-80
2023/09/25 12:27:38;;;;;;;1.38;0.90;;;26.70;66.40;;;;;;4979297;28;20027;-81
2023/09/25 12:30:04;;;;;;;2.30;1.10;;;26.70;63.90;;;;;;4952942;28;20034;-81
2023/09/25 12:32:30;;;;;;;1.85;1.05;;;26.80;64.20;;;;;;4952276;28;20089;-82
2023/09/25 12:34:55;;;;;;;2.95;0.82;;;27.10;63.90;;;;;;4949703;28;20035;-82
2023/09/25 12:37:25;;;;;;;2.75;1.05;;;27.30;62.60;;;;;;4965415;28;20388;-81
2023/09/25 12:39:51;;;;;;;0.90;0.60;;;27.50;63.40;;;;;;4971110;28;20030;-81
2023/09/25 12:42:16;;;;;;;1.98;0.93;;;27.10;66.00;;;;;;4972258;28;20462;-81